sensor_id;sensor_type;location;lat;lon;timestamp;pressure;altitude;pressure_sealevel;temperature
77355;BMP280;66422;51.202;19.936;2024-01-27T00:10:11;99379.60;;;5.91
77355;BMP280;66422;51.202;19.936;2024-01-27T00:25:31;99413.98;;;5.76
77355;BMP280;66422;51.202;19.936;2024-01-27T00:40:50;99448.77;;;5.71
77355;BMP280;66422;51.202;19.936;2024-01-27T00:56:10;99462.60;;;5.56
77355;BMP280;66422;51.202;19.936;2024-01-27T01:11:30;99494.14;;;5.36
77355;BMP280;66422;51.202;19.936;2024-01-27T01:26:50;99517.48;;;5.47
77355;BMP280;66422;51.202;19.936;2024-01-27T01:42:10;99529.86;;;5.58
77355;BMP280;66422;51.202;19.936;2024-01-27T01:57:29;99543.35;;;5.69
77355;BMP280;66422;51.202;19.936;2024-01-27T02:12:49;99548.23;;;5.59
77355;BMP280;66422;51.202;19.936;2024-01-27T02:28:09;99565.84;;;5.65
77355;BMP280;66422;51.202;19.936;2024-01-27T02:43:28;99564.65;;;5.66
77355;BMP280;66422;51.202;19.936;2024-01-27T02:58:47;99569.65;;;5.65
77355;BMP280;66422;51.202;19.936;2024-01-27T03:14:07;99582.38;;;5.56
77355;BMP280;66422;51.202;19.936;2024-01-27T03:29:27;99608.89;;;5.49
77355;BMP280;66422;51.202;19.936;2024-01-27T03:44:47;99613.95;;;5.47
77355;BMP280;66422;51.202;19.936;2024-01-27T04:00:07;99606.57;;;5.44
77355;BMP280;66422;51.202;19.936;2024-01-27T04:15:27;99614.23;;;5.41
77355;BMP280;66422;51.202;19.936;2024-01-27T04:30:47;99629.52;;;5.39
77355;BMP280;66422;51.202;19.936;2024-01-27T04:46:07;99645.41;;;5.40
77355;BMP280;66422;51.202;19.936;2024-01-27T05:01:27;99662.00;;;5.43
77355;BMP280;66422;51.202;19.936;2024-01-27T05:16:46;99663.33;;;5.35
77355;BMP280;66422;51.202;19.936;2024-01-27T05:32:06;99690.59;;;5.35
77355;BMP280;66422;51.202;19.936;2024-01-27T05:47:26;99669.66;;;5.38
77355;BMP280;66422;51.202;19.936;2024-01-27T06:02:45;99664.30;;;5.08
77355;BMP280;66422;51.202;19.936;2024-01-27T06:18:05;99677.33;;;4.91
77355;BMP280;66422;51.202;19.936;2024-01-27T06:33:25;99693.63;;;4.56
77355;BMP280;66422;51.202;19.936;2024-01-27T06:48:45;99706.00;;;4.50
77355;BMP280;66422;51.202;19.936;2024-01-27T07:04:04;99713.65;;;4.17
77355;BMP280;66422;51.202;19.936;2024-01-27T07:19:24;99736.89;;;3.95
77355;BMP280;66422;51.202;19.936;2024-01-27T07:34:44;99729.17;;;3.84
77355;BMP280;66422;51.202;19.936;2024-01-27T07:50:04;99716.77;;;3.76
77355;BMP280;66422;51.202;19.936;2024-01-27T08:05:24;99714.84;;;4.04
77355;BMP280;66422;51.202;19.936;2024-01-27T08:20:44;99719.78;;;4.24
77355;BMP280;66422;51.202;19.936;2024-01-27T08:36:03;99736.34;;;4.18
77355;BMP280;66422;51.202;19.936;2024-01-27T08:51:23;99742.59;;;3.69
77355;BMP280;66422;51.202;19.936;2024-01-27T09:06:43;99745.58;;;3.95
77355;BMP280;66422;51.202;19.936;2024-01-27T09:22:02;99764.70;;;4.02
77355;BMP280;66422;51.202;19.936;2024-01-27T09:37:22;99767.95;;;4.08
77355;BMP280;66422;51.202;19.936;2024-01-27T09:52:42;99772.96;;;4.02
77355;BMP280;66422;51.202;19.936;2024-01-27T10:08:01;99783.74;;;3.73
77355;BMP280;66422;51.202;19.936;2024-01-27T10:23:21;99796.02;;;3.88
77355;BMP280;66422;51.202;19.936;2024-01-27T10:38:41;99807.73;;;4.06
77355;BMP280;66422;51.202;19.936;2024-01-27T10:54:03;99828.99;;;3.78
77355;BMP280;66422;51.202;19.936;2024-01-27T11:09:24;99839.29;;;3.68
77355;BMP280;66422;51.202;19.936;2024-01-27T11:24:44;99847.93;;;3.75
77355;BMP280;66422;51.202;19.936;2024-01-27T11:40:07;99869.12;;;3.88
77355;BMP280;66422;51.202;19.936;2024-01-27T11:55:26;99885.40;;;3.97
77355;BMP280;66422;51.202;19.936;2024-01-27T12:10:46;99900.81;;;3.93
77355;BMP280;66422;51.202;19.936;2024-01-27T12:26:06;99932.70;;;3.89
77355;BMP280;66422;51.202;19.936;2024-01-27T12:41:28;99958.27;;;3.98
77355;BMP280;66422;51.202;19.936;2024-01-27T12:56:49;99965.72;;;4.00
77355;BMP280;66422;51.202;19.936;2024-01-27T13:12:08;99992.27;;;4.01
77355;BMP280;66422;51.202;19.936;2024-01-27T13:27:28;100028.94;;;4.34
77355;BMP280;66422;51.202;19.936;2024-01-27T13:42:48;100056.32;;;4.22
77355;BMP280;66422;51.202;19.936;2024-01-27T13:58:07;100086.03;;;4.08
77355;BMP280;66422;51.202;19.936;2024-01-27T14:13:27;100120.60;;;4.10
77355;BMP280;66422;51.202;19.936;2024-01-27T14:28:46;100143.19;;;3.99
77355;BMP280;66422;51.202;19.936;2024-01-27T14:44:06;100187.21;;;3.83
77355;BMP280;66422;51.202;19.936;2024-01-27T14:59:25;100208.30;;;3.91
77355;BMP280;66422;51.202;19.936;2024-01-27T15:14:45;100240.03;;;3.96
77355;BMP280;66422;51.202;19.936;2024-01-27T15:30:06;100267.17;;;3.94
77355;BMP280;66422;51.202;19.936;2024-01-27T15:45:26;100298.95;;;3.92
77355;BMP280;66422;51.202;19.936;2024-01-27T16:00:47;100323.39;;;3.89
77355;BMP280;66422;51.202;19.936;2024-01-27T16:16:07;100353.77;;;3.96
77355;BMP280;66422;51.202;19.936;2024-01-27T16:31:26;100384.58;;;3.83
77355;BMP280;66422;51.202;19.936;2024-01-27T16:46:46;100416.20;;;3.81
77355;BMP280;66422;51.202;19.936;2024-01-27T17:02:06;100436.88;;;3.72
77355;BMP280;66422;51.202;19.936;2024-01-27T17:17:27;100446.66;;;3.69
77355;BMP280;66422;51.202;19.936;2024-01-27T17:32:47;100459.45;;;3.84
77355;BMP280;66422;51.202;19.936;2024-01-27T17:48:07;100490.48;;;3.98
77355;BMP280;66422;51.202;19.936;2024-01-27T18:03:27;100512.48;;;4.11
77355;BMP280;66422;51.202;19.936;2024-01-27T18:18:46;100539.08;;;4.23
77355;BMP280;66422;51.202;19.936;2024-01-27T18:34:07;100557.35;;;4.34
77355;BMP280;66422;51.202;19.936;2024-01-27T18:49:27;100570.48;;;4.03
77355;BMP280;66422;51.202;19.936;2024-01-27T19:04:47;100602.31;;;3.45
77355;BMP280;66422;51.202;19.936;2024-01-27T19:20:07;100620.05;;;3.40
77355;BMP280;66422;51.202;19.936;2024-01-27T19:35:27;100631.92;;;3.08
77355;BMP280;66422;51.202;19.936;2024-01-27T19:50:46;100640.27;;;2.95
77355;BMP280;66422;51.202;19.936;2024-01-27T20:06:06;100664.84;;;2.80
77355;BMP280;66422;51.202;19.936;2024-01-27T20:21:25;100689.49;;;2.75
77355;BMP280;66422;51.202;19.936;2024-01-27T20:36:45;100724.46;;;2.59
77355;BMP280;66422;51.202;19.936;2024-01-27T20:52:06;100747.17;;;2.62
77355;BMP280;66422;51.202;19.936;2024-01-27T21:07:26;100773.23;;;2.56
77355;BMP280;66422;51.202;19.936;2024-01-27T21:22:47;100798.99;;;2.61
77355;BMP280;66422;51.202;19.936;2024-01-27T21:38:07;100815.61;;;2.50
77355;BMP280;66422;51.202;19.936;2024-01-27T21:53:27;100833.70;;;2.31
77355;BMP280;66422;51.202;19.936;2024-01-27T22:08:47;100849.40;;;2.48
77355;BMP280;66422;51.202;19.936;2024-01-27T22:24:09;100861.36;;;2.47
77355;BMP280;66422;51.202;19.936;2024-01-27T22:39:28;100867.92;;;2.07
77355;BMP280;66422;51.202;19.936;2024-01-27T22:54:49;100882.39;;;1.74
77355;BMP280;66422;51.202;19.936;2024-01-27T23:10:10;100895.52;;;1.66
77355;BMP280;66422;51.202;19.936;2024-01-27T23:25:30;100918.88;;;1.64
77355;BMP280;66422;51.202;19.936;2024-01-27T23:40:50;100935.42;;;1.66
77355;BMP280;66422;51.202;19.936;2024-01-27T23:56:09;100943.08;;;1.63
